Time;durP1;ratioP1;P1;durP2;ratioP2;P2;SDS_P1;SDS_P2;PMS_P1;PMS_P2;Temp;Humidity;BMP_temperature;BMP_pressure;BME280_temperature;BME280_humidity;BME280_pressure;Samples;Min_cycle;Max_cycle;Signal;HPM_P1;HPM_P2
2023/06/20 06:13:12;;;;;;;;;74.00;62.67;;;;;23.92;100.00;100748.81;5742375;22;1279581;-69
2023/06/20 06:15:37;;;;;;;;;68.33;59.33;;;;;24.06;100.00;100751.03;6301775;22;49606;-69
2023/06/20 06:18:03;;;;;;;;;63.00;55.50;;;;;24.18;100.00;100756.81;6302412;22;50168;-69
2023/06/20 06:20:29;;;;;;;;;0.50;0.00;;;;;24.30;100.00;100750.13;6302080;22;49967;-68
2023/06/20 06:22:54;;;;;;;;;31.75;29.75;;;;;24.14;100.00;100735.53;6302498;22;50000;-68
2023/06/20 06:25:20;;;;;;;;;3.67;2.00;;;;;24.25;100.00;100757.50;6302477;22;49936;-68
2023/06/20 06:27:45;;;;;;;;;7.00;4.00;;;;;24.40;100.00;100765.00;6301726;22;49544;-68
2023/06/20 06:30:11;;;;;;;;;9.25;4.50;;;;;24.50;100.00;100768.22;6302333;22;50209;-76
2023/06/20 06:32:37;;;;;;;;;8.00;4.50;;;;;24.67;100.00;100760.44;6303473;22;49648;-72
2023/06/20 06:35:05;;;;;;;;;7.00;5.00;;;;;24.78;100.00;100774.31;6303169;22;49693;-67
2023/06/20 06:37:31;;;;;;;;;11.75;9.25;;;;;24.81;100.00;100762.63;6302848;22;50051;-70
2023/06/20 06:39:58;;;;;;;;;4.00;4.00;;;;;24.79;100.00;100772.50;6302335;22;50585;-70
2023/06/20 06:42:24;;;;;;;;;12.00;12.00;;;;;24.90;100.00;100756.00;6298507;22;50035;-74
2023/06/20 06:44:50;;;;;;;;;5.00;5.00;;;;;24.92;100.00;100773.81;6302439;22;49699;-73
2023/06/20 06:47:15;;;;;;;;;2.00;2.00;;;;;25.06;100.00;100770.63;6303577;22;50032;-73
2023/06/20 06:49:40;;;;;;;;;2.00;0.00;;;;;25.15;100.00;100758.66;6302205;22;71615;-70
2023/06/20 06:52:06;;;;;;;;;1.75;1.75;;;;;25.31;100.00;100762.47;6299582;22;55244;-70
2023/06/20 06:54:31;;;;;;;;;1.00;0.00;;;;;25.27;100.00;100760.84;6296425;22;49760;-69
2023/06/20 06:56:57;;;;;;;;;1.50;1.50;;;;;25.33;100.00;100763.28;6295673;22;64524;-69
2023/06/20 06:59:22;;;;;;;;;9.25;1.50;;;;;25.44;100.00;100752.97;6295696;22;72825;-72
2023/06/20 07:01:47;;;;;;;;;3.50;1.25;;;;;25.58;100.00;100749.75;6293672;22;64713;-70
2023/06/20 07:04:14;;;;;;;;;6.50;5.00;;;;;25.78;100.00;100746.25;6292158;22;60989;-70
2023/06/20 07:06:40;;;;;;;;;3.00;0.75;;;;;25.69;100.00;100742.97;6296745;22;49706;-70
2023/06/20 07:09:05;;;;;;;;;8.25;5.50;;;;;25.81;100.00;100736.22;6295866;22;50469;-71
2023/06/20 07:11:30;;;;;;;;;2.00;1.00;;;;;25.83;100.00;100745.09;6294582;22;68628;-70
2023/06/20 07:13:56;;;;;;;;;8.00;6.50;;;;;25.84;100.00;100741.47;6296210;22;49971;-70
2023/06/20 07:16:21;;;;;;;;;4.50;4.50;;;;;25.94;100.00;100753.56;6296564;22;49820;-70
2023/06/20 07:18:46;;;;;;;;;0.00;0.00;;;;;25.90;100.00;100754.66;6294479;22;71270;-70
2023/06/20 07:21:12;;;;;;;;;7.25;7.25;;;;;25.92;100.00;100762.66;6295578;22;49747;-70
2023/06/20 07:23:37;;;;;;;;;33.00;32.25;;;;;25.92;100.00;100771.59;6290695;22;49746;-69
2023/06/20 07:26:03;;;;;;;;;8.25;8.00;;;;;26.04;100.00;100766.63;6293801;22;59661;-71
2023/06/20 07:28:29;;;;;;;;;11.75;11.00;;;;;25.85;100.00;100774.59;6294527;22;50703;-70
2023/06/20 07:30:54;;;;;;;;;14.25;11.50;;;;;25.82;100.00;100775.63;6295241;22;52741;-71
2023/06/20 07:33:20;;;;;;;;;15.00;13.75;;;;;25.80;100.00;100784.69;6295396;22;49746;-70
2023/06/20 07:35:46;;;;;;;;;5.50;5.00;;;;;25.83;100.00;100784.56;6295215;22;50102;-70
2023/06/20 07:38:11;;;;;;;;;10.25;9.25;;;;;25.64;100.00;100777.22;6295239;22;50576;-72
2023/06/20 07:40:37;;;;;;;;;6.50;1.00;;;;;25.62;100.00;100791.66;6293803;22;49852;-69
2023/06/20 07:43:02;;;;;;;;;9.00;9.00;;;;;25.67;100.00;100798.63;6295065;22;49604;-70
2023/06/20 07:45:28;;;;;;;;;7.75;6.50;;;;;25.67;100.00;100804.00;6294090;22;49991;-67
2023/06/20 07:47:53;;;;;;;;;26.00;24.50;;;;;25.70;100.00;100805.72;6290676;22;50443;-77
2023/06/20 07:50:18;;;;;;;;;10.00;10.00;;;;;25.66;100.00;100795.97;6295229;22;49697;-74
2023/06/20 07:52:43;;;;;;;;;5.50;5.50;;;;;25.79;100.00;100807.16;6294309;22;55567;-69
2023/06/20 07:55:09;;;;;;;;;7.25;7.25;;;;;25.86;100.00;100805.94;6293275;22;57747;-71
2023/06/20 07:57:34;;;;;;;;;6.50;6.50;;;;;25.92;100.00;100805.69;6294598;22;51375;-69
2023/06/20 07:59:59;;;;;;;;;9.50;9.50;;;;;25.98;100.00;100813.50;6294389;22;70258;-69
2023/06/20 08:02:25;;;;;;;;;2.00;1.50;;;;;26.07;100.00;100810.44;6294812;22;49608;-70
2023/06/20 08:04:50;;;;;;;;;12.00;10.75;;;;;26.12;100.00;100815.59;6293618;22;65526;-69
2023/06/20 08:07:15;;;;;;;;;12.25;10.25;;;;;26.08;100.00;100820.25;6295333;22;53624;-69
2023/06/20 08:09:41;;;;;;;;;8.25;5.25;;;;;26.05;100.00;100808.72;6295142;22;49945;-70
2023/06/20 08:12:07;;;;;;;;;12.00;8.00;;;;;26.10;100.00;100809.41;6294009;22;50098;-71
2023/06/20 08:14:32;;;;;;;;;9.00;9.00;;;;;25.99;100.00;100806.31;6295101;22;49930;-74
2023/06/20 08:16:58;;;;;;;;;6.50;6.50;;;;;26.03;100.00;100807.91;6294874;22;50825;-73
2023/06/20 08:19:23;;;;;;;;;12.50;10.75;;;;;26.14;100.00;100808.34;6294306;22;54672;-80
2023/06/20 08:21:48;;;;;;;;;12.25;9.25;;;;;26.24;100.00;100807.88;6293225;22;58631;-72
2023/06/20 08:24:13;;;;;;;;;9.50;7.50;;;;;26.35;100.00;100810.13;6294575;22;51753;-70
2023/06/20 08:26:39;;;;;;;;;4.50;3.50;;;;;26.41;100.00;100792.84;6294873;22;50149;-71
2023/06/20 08:29:04;;;;;;;;;11.25;9.25;;;;;26.56;100.00;100792.16;6295418;22;50053;-71
2023/06/20 08:31:36;;;;;;;;;10.50;9.00;;;;;26.78;100.00;100795.63;6295209;22;49979;-70
2023/06/20 08:34:05;;;;;;;;;8.75;8.00;;;;;26.91;100.00;100790.53;6295792;22;49744;-72
2023/06/20 08:36:32;;;;;;;;;13.00;9.25;;;;;27.01;100.00;100793.69;6292378;22;52186;-70
2023/06/20 08:38:59;;;;;;;;;10.50;8.50;;;;;27.10;100.00;100790.59;6292631;22;49852;-70
2023/06/20 08:41:25;;;;;;;;;11.00;8.50;;;;;27.18;100.00;100785.72;6295586;22;49704;-69
2023/06/20 08:43:50;;;;;;;;;6.50;6.50;;;;;27.16;100.00;100782.22;6295726;22;50215;-71
2023/06/20 08:46:16;;;;;;;;;3.00;0.75;;;;;27.18;100.00;100772.25;6294515;22;49956;-72
2023/06/20 08:48:41;;;;;;;;;11.50;7.00;;;;;27.32;100.00;100774.28;6293985;22;69164;-70
2023/06/20 08:51:07;;;;;;;;;15.25;10.50;;;;;27.35;100.00;100761.53;6295590;22;49631;-70
2023/06/20 08:53:34;;;;;;;;;1.25;0.75;;;;;27.59;100.00;100772.03;6294263;22;49679;-70
2023/06/20 08:56:01;;;;;;;;;5.50;4.50;;;;;27.58;100.00;100765.78;6293963;22;49693;-69
2023/06/20 08:58:26;;;;;;;;;7.75;7.75;;;;;27.51;100.00;100772.44;6294559;22;50039;-72
2023/06/20 09:00:52;;;;;;;;;15.75;14.50;;;;;27.47;100.00;100778.91;6292991;22;49769;-71
2023/06/20 09:03:17;;;;;;;;;13.50;13.00;;;;;27.48;100.00;100783.34;6295779;22;49934;-71
2023/06/20 09:05:45;;;;;;;;;12.50;9.00;;;;;27.47;100.00;100778.91;6293996;22;49749;-69
2023/06/20 09:08:13;;;;;;;;;9.50;9.50;;;;;27.50;100.00;100775.19;6294475;22;49712;-71
2023/06/20 09:10:39;;;;;;;;;11.00;11.00;;;;;27.37;100.00;100770.41;6294563;22;49666;-69
2023/06/20 09:13:06;;;;;;;;;11.50;8.50;;;;;27.46;100.00;100752.03;6295093;22;50197;-68
2023/06/20 09:15:33;;;;;;;;;10.50;10.50;;;;;27.56;100.00;100753.31;6295127;22;50252;-68
2023/06/20 09:18:02;;;;;;;;;8.75;6.50;;;;;27.67;100.00;100757.25;6293516;22;49803;-68
2023/06/20 09:20:30;;;;;;;;;7.75;7.75;;;;;27.73;100.00;100758.78;6293611;22;50190;-68
2023/06/20 09:22:56;;;;;;;;;10.25;10.00;;;;;27.75;100.00;100750.63;6295526;22;49809;-68
2023/06/20 09:25:28;;;;;;;;;9.50;8.00;;;;;27.72;100.00;100737.28;6295563;22;50734;-69
2023/06/20 09:27:54;;;;;;;;;4.25;4.00;;;;;27.79;100.00;100741.41;6290729;22;50088;-68
2023/06/20 09:30:20;;;;;;;;;9.00;9.00;;;;;27.87;100.00;100744.59;6294855;22;49727;-70
2023/06/20 09:32:45;;;;;;;;;9.75;9.75;;;;;28.06;100.00;100733.72;6294813;22;49936;-69
2023/06/20 09:35:14;;;;;;;;;13.75;11.25;;;;;28.30;100.00;100737.00;6295390;22;50540;-70
2023/06/20 09:37:47;;;;;;;;;8.75;8.50;;;;;28.47;100.00;100739.63;6294845;22;49931;-70
2023/06/20 09:40:14;;;;;;;;;11.50;7.75;;;;;28.58;100.00;100742.66;6293844;22;49969;-69
2023/06/20 09:42:42;;;;;;;;;8.25;7.50;;;;;28.67;100.00;100752.09;6294651;22;49655;-70
2023/06/20 09:45:09;;;;;;;;;12.25;11.00;;;;;28.70;100.00;100750.09;6294955;22;50367;-69
2023/06/20 09:47:36;;;;;;;;;13.50;13.00;;;;;28.89;100.00;100759.91;6294372;22;49778;-71
2023/06/20 09:50:20;;;;;;;;;13.75;11.50;;;;;29.11;100.00;100748.78;6292946;22;49730;-68
2023/06/20 09:52:56;;;;;;;;;9.00;7.75;;;;;29.21;100.00;100731.94;6294253;22;49960;-69
2023/06/20 09:55:24;;;;;;;;;9.00;8.00;;;;;29.28;100.00;100752.28;6294739;22;51412;-70
2023/06/20 09:57:53;;;;;;;;;4.25;2.25;;;;;29.39;100.00;100751.66;6294549;22;49738;-70
2023/06/20 10:00:19;;;;;;;;;14.50;11.75;;;;;29.38;100.00;100759.84;6294046;22;50006;-69
2023/06/20 10:02:48;;;;;;;;;13.75;13.75;;;;;29.45;100.00;100759.41;6293834;22;49999;-70
2023/06/20 10:05:15;;;;;;;;;10.50;8.50;;;;;29.40;100.00;100763.34;6293890;22;50754;-69
2023/06/20 10:07:42;;;;;;;;;10.00;10.00;;;;;29.27;100.00;100747.81;6294704;22;49984;-70
2023/06/20 10:10:09;;;;;;;;;9.00;6.25;;;;;29.38;100.00;100774.25;6294275;22;50079;-69
2023/06/20 10:12:36;;;;;;;;;1.75;1.75;;;;;29.19;100.00;100762.72;6294719;22;50010;-69
2023/06/20 10:15:07;;;;;;;;;9.00;7.25;;;;;29.29;100.00;100774.78;6294297;22;50470;-68
2023/06/20 10:17:44;;;;;;;;;18.00;12.00;;;;;29.07;100.00;100784.09;6293965;22;49620;-70
2023/06/20 10:20:26;;;;;;;;;8.00;7.50;;;;;29.08;100.00;100787.66;6294085;22;49729;-71
2023/06/20 10:23:00;;;;;;;;;2.00;2.00;;;;;29.15;100.00;100791.78;6295945;22;49564;-70
2023/06/20 10:25:27;;;;;;;;;13.00;7.50;;;;;29.26;100.00;100778.53;6295649;22;50201;-70
2023/06/20 10:27:52;;;;;;;;;5.25;5.25;;;;;29.37;100.00;100796.84;6296574;22;49918;-69
2023/06/20 10:30:43;;;;;;;;;4.00;4.00;;;;;29.68;100.00;100778.88;6296389;22;49771;-72
2023/06/20 10:33:10;;;;;;;;;4.75;4.75;;;;;29.62;100.00;100780.09;6296248;22;49957;-69
2023/06/20 10:35:48;;;;;;;;;4.50;4.50;;;;;29.73;100.00;100790.31;6296173;22;49952;-71
2023/06/20 10:38:13;;;;;;;;;9.25;9.25;;;;;29.68;100.00;100797.81;6294792;22;49630;-69
2023/06/20 10:40:38;;;;;;;;;7.00;5.50;;;;;29.88;100.00;100806.50;6295348;22;65665;-69
2023/06/20 10:43:22;;;;;;;;;7.75;6.75;;;;;30.03;100.00;100799.31;6296558;22;49871;-72
2023/06/20 10:45:57;;;;;;;;;7.75;5.00;;;;;30.16;100.00;100794.06;6296815;22;50516;-75
2023/06/20 10:48:23;;;;;;;;;7.25;5.50;;;;;30.08;100.00;100794.53;6296409;22;49652;-81
2023/06/20 10:50:49;;;;;;;;;6.00;5.00;;;;;30.17;100.00;100804.81;6297718;22;49660;-82
2023/06/20 10:53:14;;;;;;;;;1.00;0.75;;;;;30.15;100.00;100805.88;6297557;22;49912;-84
2023/06/20 10:55:40;;;;;;;;;4.00;4.00;;;;;29.97;100.00;100788.84;6296865;22;50396;-72
2023/06/20 10:58:05;;;;;;;;;6.00;6.00;;;;;30.08;100.00;100808.06;6296814;22;49964;-77
2023/06/20 11:00:30;;;;;;;;;1.00;1.00;;;;;30.01;100.00;100803.94;6296835;22;51278;-79
2023/06/20 11:02:56;;;;;;;;;4.25;3.00;;;;;29.93;100.00;100807.13;6296656;22;49655;-76
2023/06/20 11:05:26;;;;;;;;;1.25;1.25;;;;;29.97;100.00;100810.50;6295874;22;51221;-73
2023/06/20 11:08:00;;;;;;;;;3.50;3.50;;;;;30.15;100.00;100814.88;6295074;22;49705;-73
2023/06/20 11:10:33;;;;;;;;;4.25;4.25;;;;;30.23;100.00;100817.13;6294914;22;49572;-74
2023/06/20 11:13:04;;;;;;;;;9.00;9.00;;;;;30.29;100.00;100813.16;6294660;22;49955;-70
2023/06/20 11:15:32;;;;;;;;;4.75;3.50;;;;;30.25;100.00;100811.59;6295803;22;49801;-70
2023/06/20 11:18:02;;;;;;;;;7.75;5.00;;;;;30.34;100.00;100794.78;6295103;22;49632;-70
2023/06/20 11:20:27;;;;;;;;;2.50;2.50;;;;;30.52;100.00;100807.22;6295094;22;50213;-70
2023/06/20 11:22:56;;;;;;;;;5.00;2.00;;;;;30.72;100.00;100795.16;6295152;22;49988;-70
2023/06/20 11:25:29;;;;;;;;;1.00;1.00;;;;;30.70;100.00;100806.13;6295227;22;51275;-70
2023/06/20 11:27:55;;;;;;;;;8.00;2.00;;;;;30.68;100.00;100799.03;6296106;22;49630;-70
2023/06/20 11:30:28;;;;;;;;;16.50;16.25;;;;;30.85;100.00;100803.41;6295183;22;49906;-70
2023/06/20 11:33:14;;;;;;;;;30.50;25.75;;;;;30.79;100.00;100810.09;6296142;22;49716;-70
2023/06/20 11:35:41;;;;;;;;;1.50;1.50;;;;;30.77;100.00;100804.75;6296044;22;51348;-70
2023/06/20 11:38:08;;;;;;;;;1.00;0.00;;;;;30.73;100.00;100799.63;6295892;22;49810;-70
2023/06/20 11:40:34;;;;;;;;;9.75;9.00;;;;;30.64;100.00;100789.31;6294019;22;49786;-69
2023/06/20 11:42:59;;;;;;;;;0.00;0.00;;;;;30.63;100.00;100787.59;6293835;22;49911;-69
2023/06/20 11:45:28;;;;;;;;;5.00;5.00;;;;;30.61;100.00;100790.41;6293326;22;49843;-70
2023/06/20 11:48:10;;;;;;;;;11.25;10.00;;;;;30.66;100.00;100773.88;6296237;22;49671;-70
2023/06/20 11:50:36;;;;;;;;;8.75;7.50;;;;;30.78;100.00;100775.78;6295355;22;49754;-68
2023/06/20 11:53:03;;;;;;;;;1.75;1.00;;;;;30.72;100.00;100782.50;6294550;22;49648;-68
2023/06/20 11:55:47;;;;;;;;;9.75;1.25;;;;;30.85;100.00;100781.72;6293384;22;49980;-68
2023/06/20 11:58:13;;;;;;;;;5.00;5.00;;;;;30.63;100.00;100787.59;6294925;22;49779;-70
2023/06/20 12:00:38;;;;;;;;;15.00;10.00;;;;;30.35;100.00;100783.88;6294433;22;53703;-70
2023/06/20 12:03:10;;;;;;;;;2.75;2.75;;;;;30.41;100.00;100777.22;6294975;22;54472;-70
2023/06/20 12:05:37;;;;;;;;;7.50;5.00;;;;;30.16;100.00;100781.41;6294324;22;49900;-70
2023/06/20 12:08:03;;;;;;;;;29.50;26.00;;;;;30.19;100.00;100788.47;6295240;22;49732;-70
2023/06/20 12:10:29;;;;;;;;;3.00;3.00;;;;;30.12;100.00;100774.44;6294706;22;49699;-69
2023/06/20 12:12:54;;;;;;;;;16.25;16.25;;;;;30.12;100.00;100782.56;6291736;22;49696;-68
2023/06/20 12:15:20;;;;;;;;;69.75;59.00;;;;;30.16;100.00;100778.69;6294846;22;51028;-68
2023/06/20 12:17:45;;;;;;;;;10.25;8.75;;;;;30.17;100.00;100764.19;6293153;22;49781;-70
2023/06/20 12:20:11;;;;;;;;;63.00;54.50;;;;;30.39;100.00;100781.81;6294528;22;49790;-69
2023/06/20 12:22:37;;;;;;;;;0.00;0.00;;;;;30.47;100.00;100776.81;6295130;22;49549;-69
2023/06/20 12:25:04;;;;;;;;;15.50;14.00;;;;;30.65;100.00;100785.69;6294843;22;49833;-69
2023/06/20 12:27:29;;;;;;;;;3.50;1.25;;;;;30.78;100.00;100781.22;6295508;22;49918;-69
2023/06/20 12:29:54;;;;;;;;;3.00;1.00;;;;;30.93;100.00;100795.66;6294803;22;49948;-69
2023/06/20 12:32:19;;;;;;;;;1.75;0.75;;;;;30.95;100.00;100800.00;6293777;22;65932;-70
2023/06/20 12:34:45;;;;;;;;;0.00;0.00;;;;;31.00;100.00;100791.59;6294579;22;61490;-69
2023/06/20 12:37:10;;;;;;;;;9.50;7.00;;;;;31.00;100.00;100791.59;6294859;22;58364;-70
2023/06/20 12:39:36;;;;;;;;;8.25;8.00;;;;;31.00;100.00;100783.47;6295588;22;49669;-69
2023/06/20 12:42:01;;;;;;;;;9.50;8.50;;;;;31.10;100.00;100773.75;6293885;22;50172;-69
2023/06/20 12:44:27;;;;;;;;;4.00;1.75;;;;;31.19;100.00;100775.88;6295505;22;50342;-69
2023/06/20 12:46:52;;;;;;;;;7.25;2.50;;;;;31.33;100.00;100773.16;6295576;22;50023;-71
2023/06/20 12:49:19;;;;;;;;;8.00;5.00;;;;;31.37;100.00;100778.41;6293270;22;58269;-70
2023/06/20 12:51:45;;;;;;;;;2.25;2.25;;;;;31.28;100.00;100788.00;6295182;22;49713;-69
2023/06/20 12:54:11;;;;;;;;;6.00;3.00;;;;;31.21;100.00;100773.09;6295363;22;50382;-69
2023/06/20 12:56:36;;;;;;;;;4.25;1.50;;;;;31.09;100.00;100772.03;6295756;22;49605;-70
2023/06/20 12:59:04;;;;;;;;;5.50;4.00;;;;;31.06;100.00;100794.75;6294884;22;49643;-68
2023/06/20 13:01:30;;;;;;;;;8.00;7.50;;;;;30.82;100.00;100779.22;6293348;22;49938;-68
2023/06/20 13:03:56;;;;;;;;;9.25;9.25;;;;;30.90;100.00;100795.84;6293787;22;50006;-68
2023/06/20 13:06:21;;;;;;;;;4.50;4.00;;;;;30.88;100.00;100795.94;6294330;22;49625;-68
2023/06/20 13:08:46;;;;;;;;;2.50;2.50;;;;;30.83;100.00;100802.63;6293875;22;49788;-68
2023/06/20 13:11:13;;;;;;;;;4.50;4.50;;;;;30.71;100.00;100802.44;6295019;22;49907;-68
2023/06/20 13:13:39;;;;;;;;;2.00;1.00;;;;;30.42;100.00;100798.78;6293690;22;50738;-69
2023/06/20 13:16:04;;;;;;;;;5.50;5.00;;;;;30.34;100.00;100800.22;6295377;22;49935;-69
2023/06/20 13:18:29;;;;;;;;;6.00;5.50;;;;;30.25;100.00;100798.06;6295082;22;49710;-69
2023/06/20 13:20:55;;;;;;;;;3.50;3.50;;;;;30.36;100.00;100798.28;6295473;22;50013;-68
2023/06/20 13:23:20;;;;;;;;;5.75;5.75;;;;;30.63;100.00;100785.75;6295192;22;49742;-68
2023/06/20 13:25:45;;;;;;;;;5.00;5.00;;;;;30.76;100.00;100786.75;6294122;22;56883;-69
2023/06/20 13:28:11;;;;;;;;;5.00;4.75;;;;;30.85;100.00;100779.00;6294837;22;49732;-68
2023/06/20 13:30:36;;;;;;;;;5.00;4.25;;;;;31.02;100.00;100776.97;6295734;22;49953;-68
2023/06/20 13:33:02;;;;;;;;;2.50;1.00;;;;;31.13;100.00;100773.56;6294864;22;49695;-69
2023/06/20 13:35:28;;;;;;;;;0.00;0.00;;;;;31.22;100.00;100773.00;6295132;22;49737;-72
2023/06/20 13:37:53;;;;;;;;;3.00;2.00;;;;;31.33;100.00;100773.16;6295386;22;49577;-71
2023/06/20 13:40:19;;;;;;;;;4.00;4.00;;;;;31.43;100.00;100749.00;6294550;22;49913;-69
2023/06/20 13:42:48;;;;;;;;;3.00;0.00;;;;;31.67;100.00;100751.94;6292236;22;50560;-69
2023/06/20 13:45:16;;;;;;;;;8.75;5.25;;;;;31.92;100.00;100755.72;6295131;22;50047;-68
2023/06/20 13:47:41;;;;;;;;;6.00;5.00;;;;;31.68;100.00;100728.38;6293714;22;49756;-72
2023/06/20 13:50:08;;;;;;;;;6.00;3.25;;;;;31.80;100.00;100752.00;6294285;22;49865;-68
2023/06/20 13:52:36;;;;;;;;;29.50;28.50;;;;;31.51;100.00;100745.78;6289492;22;50649;-73
2023/06/20 13:55:01;;;;;;;;;24.75;23.75;;;;;31.34;100.00;100745.06;6291154;22;49909;-74
2023/06/20 13:57:27;;;;;;;;;3.50;3.50;;;;;31.39;100.00;100757.47;6293668;22;49839;-72
2023/06/20 13:59:53;;;;;;;;;9.50;6.25;;;;;31.33;100.00;100765.03;6295222;22;49948;-71
2023/06/20 14:02:19;;;;;;;;;1.00;1.00;;;;;31.44;100.00;100766.16;6294119;22;57639;-71
2023/06/20 14:04:44;;;;;;;;;1.75;1.75;;;;;31.47;100.00;100765.97;6296319;22;49713;-69
2023/06/20 14:07:10;;;;;;;;;2.00;1.00;;;;;31.60;100.00;100767.75;6296300;22;49969;-71
2023/06/20 14:09:35;;;;;;;;;11.75;9.50;;;;;31.40;100.00;100764.63;6295206;22;49667;-70
2023/06/20 14:12:02;;;;;;;;;0.25;0.25;;;;;31.38;100.00;100759.31;6293311;22;50491;-70
2023/06/20 14:14:28;;;;;;;;;69.00;57.75;;;;;31.05;100.00;100770.47;6296041;22;49658;-69
2023/06/20 14:16:54;;;;;;;;;102.75;93.25;;;;;31.05;100.00;100763.19;6296104;22;49983;-75
2023/06/20 14:19:20;;;;;;;;;18.25;17.00;;;;;30.99;100.00;100763.63;6296820;22;49602;-77
2023/06/20 14:21:46;;;;;;;;;1.00;0.00;;;;;30.94;100.00;100770.28;6294658;22;50759;-74
2023/06/20 14:24:11;;;;;;;;;9.00;9.00;;;;;30.72;100.00;100768.06;6296270;22;49742;-75
2023/06/20 14:26:37;;;;;;;;;18.75;18.75;;;;;30.59;100.00;100759.78;6295629;22;49943;-74
2023/06/20 14:29:02;;;;;;;;;7.75;7.75;;;;;30.52;100.00;100763.00;6296600;22;49942;-77
2023/06/20 14:31:28;;;;;;;;;2.50;2.50;;;;;30.44;100.00;100753.50;6295574;22;50453;-67
2023/06/20 14:33:53;;;;;;;;;0.00;0.00;;;;;30.78;100.00;100771.25;6295257;22;58238;-71
2023/06/20 14:36:18;;;;;;;;;0.00;0.00;;;;;31.04;100.00;100757.88;6295696;22;59266;-71
2023/06/20 14:38:47;;;;;;;;;12.25;11.25;;;;;31.24;100.00;100754.78;6296318;22;49646;-71
2023/06/20 14:41:13;;;;;;;;;83.25;68.25;;;;;31.27;100.00;100770.00;6293986;22;49820;-71
2023/06/20 14:43:38;;;;;;;;;20.75;20.00;;;;;31.15;100.00;100759.88;6296558;22;49759;-68
2023/06/20 14:46:04;;;;;;;;;0.00;0.00;;;;;31.22;100.00;100770.28;6296845;22;49563;-68
2023/06/20 14:48:29;;;;;;;;;1.25;0.00;;;;;31.25;100.00;100777.34;6296949;22;49586;-71
2023/06/20 14:50:54;;;;;;;;;10.25;8.25;;;;;30.98;100.00;100778.13;6296337;22;51253;-69
2023/06/20 14:53:20;;;;;;;;;0.00;0.00;;;;;30.99;100.00;100781.72;6296280;22;49523;-69
2023/06/20 14:55:45;;;;;;;;;0.00;0.00;;;;;30.83;100.00;100773.69;6296911;22;49611;-72
2023/06/20 14:58:10;;;;;;;;;0.00;0.00;;;;;30.79;100.00;100785.69;6296864;22;49567;-73
2023/06/20 15:00:36;;;;;;;;;10.50;10.50;;;;;30.64;100.00;100779.38;6294965;22;68602;-73
2023/06/20 15:03:01;;;;;;;;;77.25;64.75;;;;;30.46;100.00;100780.50;6296107;22;49683;-73
2023/06/20 15:05:26;;;;;;;;;117.00;114.75;;;;;30.19;100.00;100783.03;6296367;22;50378;-73
2023/06/20 15:07:52;;;;;;;;;51.00;47.33;;;;;30.21;100.00;100778.44;6296630;22;49936;-72
2023/06/20 15:10:18;;;;;;;;;107.33;99.33;;;;;30.06;100.00;100791.00;6295291;22;50170;-72
2023/06/20 15:12:43;;;;;;;;;99.25;87.25;;;;;29.99;100.00;100781.50;6295741;22;49810;-70
2023/06/20 15:15:09;;;;;;;;;83.25;69.50;;;;;30.06;100.00;100788.31;6295559;22;49703;-74
2023/06/20 15:17:34;;;;;;;;;112.00;109.50;;;;;30.00;100.00;100791.38;6297237;22;49992;-67
2023/06/20 15:19:59;;;;;;;;;115.00;112.00;;;;;29.95;100.00;100798.91;6296753;22;51738;-69
2023/06/20 15:22:25;;;;;;;;;117.00;116.33;;;;;29.98;100.00;100792.44;6295729;22;49770;-69
2023/06/20 15:24:50;;;;;;;;;114.50;112.50;;;;;29.90;100.00;100790.16;6296142;22;53729;-69
2023/06/20 15:27:17;;;;;;;;;116.00;114.50;;;;;29.75;100.00;100793.78;6296318;22;50204;-69
2023/06/20 15:29:42;;;;;;;;;116.60;115.60;;;;;29.57;100.00;100799.31;6294139;22;51518;-70
2023/06/20 15:32:07;;;;;;;;;112.67;107.67;;;;;29.45;100.00;100802.69;6296336;22;49719;-70
2023/06/20 15:34:33;;;;;;;;;106.33;98.67;;;;;29.38;100.00;100806.69;6296499;22;49639;-71
2023/06/20 15:36:58;;;;;;;;;97.75;84.75;;;;;29.24;100.00;100801.19;6296608;22;49989;-70
2023/06/20 15:39:25;;;;;;;;;116.00;113.00;;;;;29.28;100.00;100798.22;6295799;22;50614;-70
2023/06/20 15:41:51;;;;;;;;;113.00;109.25;;;;;29.25;100.00;100797.53;6295308;22;49592;-71
2023/06/20 15:44:16;;;;;;;;;117.00;113.00;;;;;29.05;100.00;100791.41;6295289;22;53287;-70
2023/06/20 15:46:43;;;;;;;;;115.00;111.75;;;;;29.13;100.00;100801.78;6296658;22;49768;-71
2023/06/20 15:49:08;;;;;;;;;119.20;117.60;;;;;29.13;100.00;100806.31;6293309;22;50540;-71
2023/06/20 15:51:34;;;;;;;;;114.00;106.00;;;;;29.03;100.00;100812.22;6292806;22;49772;-74
2023/06/20 15:54:00;;;;;;;;;114.00;108.60;;;;;29.08;100.00;100807.47;6295789;22;49758;-71
2023/06/20 15:56:29;;;;;;;;;113.20;105.40;;;;;28.99;100.00;100796.28;6296563;22;49642;-71
2023/06/20 15:58:56;;;;;;;;;119.00;116.60;;;;;29.10;100.00;100817.31;6295808;22;49615;-73
2023/06/20 16:01:21;;;;;;;;;115.80;112.40;;;;;29.20;100.00;100799.63;6296324;22;49669;-72
2023/06/20 16:03:46;;;;;;;;;112.25;107.25;;;;;29.16;100.00;100792.66;6295557;22;49664;-69
2023/06/20 16:06:12;;;;;;;;;112.75;109.00;;;;;29.11;100.00;100795.59;6295481;22;57896;-71
2023/06/20 16:08:37;;;;;;;;;105.50;94.50;;;;;29.09;100.00;100813.75;6295175;22;50190;-68
2023/06/20 16:11:02;;;;;;;;;68.75;58.75;;;;;29.12;100.00;100808.16;6295174;22;57235;-71
2023/06/20 16:13:29;;;;;;;;;19.50;19.50;;;;;29.06;100.00;100813.91;6295586;22;49652;-70
2023/06/20 16:15:54;;;;;;;;;4.00;4.00;;;;;28.92;100.00;100816.50;6296409;22;50022;-78
2023/06/20 16:18:19;;;;;;;;;112.67;106.67;;;;;28.86;100.00;100812.28;6296270;22;50259;-68
2023/06/20 16:20:45;;;;;;;;;106.50;100.00;;;;;28.79;100.00;100797.34;6295638;22;49748;-69
2023/06/20 16:23:10;;;;;;;;;13.75;13.75;;;;;29.01;100.00;100822.25;6296101;22;49728;-75
2023/06/20 16:25:36;;;;;;;;;107.50;101.00;;;;;29.56;100.00;100799.41;6295639;22;49994;-68
2023/06/20 16:28:02;;;;;;;;;89.00;75.00;;;;;30.48;100.00;100792.09;6293439;22;50352;-69
2023/06/20 16:30:27;;;;;;;;;117.75;117.75;;;;;31.30;100.00;100789.63;6295159;22;49626;-70
2023/06/20 16:32:52;;;;;;;;;81.00;65.67;;;;;31.11;100.00;100772.78;6294621;22;51860;-70
2023/06/20 16:35:17;;;;;;;;;81.00;66.33;;;;;31.01;100.00;100812.31;6294570;22;49930;-69
2023/06/20 16:37:43;;;;;;;;;8.50;8.50;;;;;30.78;100.00;100797.47;6295108;22;56653;-69
2023/06/20 16:40:09;;;;;;;;;32.50;30.75;;;;;30.87;100.00;100818.59;6296161;22;50007;-69
2023/06/20 16:42:34;;;;;;;;;42.75;41.00;;;;;30.80;100.00;100828.09;6295834;22;49753;-68
2023/06/20 16:45:01;;;;;;;;;63.67;54.67;;;;;30.47;100.00;100812.03;6295915;22;51303;-69
2023/06/20 16:47:26;;;;;;;;;8.50;8.50;;;;;30.34;100.00;100835.41;6296402;22;49776;-69
2023/06/20 16:49:51;;;;;;;;;1.75;1.75;;;;;30.12;100.00;100825.00;6296204;22;49691;-69
2023/06/20 16:52:17;;;;;;;;;58.75;52.25;;;;;29.89;100.00;100827.19;6295119;22;57135;-67
2023/06/20 16:54:42;;;;;;;;;114.25;112.00;;;;;29.65;100.00;100836.75;6295642;22;49604;-69
2023/06/20 16:57:07;;;;;;;;;102.75;92.25;;;;;29.67;100.00;100839.34;6295389;22;67003;-66
2023/06/20 16:59:35;;;;;;;;;114.50;112.75;;;;;29.61;100.00;100845.97;6296341;22;49768;-68
2023/06/20 17:02:00;;;;;;;;;38.50;38.50;;;;;29.68;100.00;100850.09;6295990;22;49746;-68
2023/06/20 17:04:25;;;;;;;;;4.00;4.00;;;;;29.71;100.00;100844.50;6295858;22;49599;-68
2023/06/20 17:06:51;;;;;;;;;55.00;47.67;;;;;29.60;100.00;100850.50;6293322;22;67176;-69
2023/06/20 17:09:16;;;;;;;;;25.00;23.75;;;;;29.35;100.00;100847.44;6295942;22;49645;-68
2023/06/20 17:11:41;;;;;;;;;9.00;9.00;;;;;29.30;100.00;100854.91;6295912;22;49927;-68
2023/06/20 17:14:07;;;;;;;;;2.50;1.00;;;;;-142.59;100.00;56100.38;6296304;22;50058;-68
2023/06/20 17:16:32;;;;;;;;;0.00;0.00;;;;;-142.59;100.00;56100.38;6296261;22;49649;-68
2023/06/20 17:18:57;;;;;;;;;0.50;0.50;;;;;-142.59;100.00;56100.38;6293974;22;50012;-68